createdAt,value
2023-04-09T00:01:12.955Z,23.30
2023-04-09T00:03:43.324Z,28.40
2023-04-09T00:06:14.297Z,24.00
2023-04-09T00:08:44.639Z,24.40
2023-04-09T00:11:15.629Z,21.70
2023-04-09T00:13:46.290Z,18.70
2023-04-09T00:16:16.865Z,19.90
2023-04-09T00:18:47.567Z,19.00
2023-04-09T00:21:18.179Z,21.70
2023-04-09T00:23:49.248Z,17.10
2023-04-09T00:26:19.995Z,20.30
2023-04-09T00:28:51.061Z,19.50
2023-04-09T00:31:21.672Z,17.00
2023-04-09T00:33:52.298Z,18.80
2023-04-09T00:36:24.692Z,17.50
2023-04-09T00:38:57.211Z,18.00
2023-04-09T00:41:28.125Z,16.10
2023-04-09T00:43:59.828Z,19.00
2023-04-09T00:46:30.765Z,17.40
2023-04-09T00:49:01.885Z,15.10
2023-04-09T00:51:33.156Z,13.60
2023-04-09T00:54:03.949Z,16.10
2023-04-09T00:56:35.406Z,14.50
2023-04-09T00:59:06.213Z,14.00
2023-04-09T01:01:36.943Z,14.10
2023-04-09T01:04:07.798Z,14.70
2023-04-09T01:06:43.970Z,14.10
2023-04-09T01:09:22.531Z,12.40
2023-04-09T01:12:07.409Z,11.00
2023-04-09T01:14:45.790Z,12.50
2023-04-09T01:17:23.378Z,14.60
2023-04-09T01:20:01.427Z,16.40
2023-04-09T01:25:26.566Z,7.90
2023-04-09T01:28:07.854Z,12.00
2023-04-09T01:30:38.965Z,10.20
2023-04-09T01:33:10.220Z,13.20
2023-04-09T01:35:42.706Z,10.80
2023-04-09T01:38:14.725Z,12.60
2023-04-09T01:40:45.768Z,11.70
2023-04-09T01:43:16.647Z,10.80
2023-04-09T01:45:48.209Z,12.50
2023-04-09T01:48:20.604Z,13.00
2023-04-09T01:50:52.073Z,11.70
2023-04-09T01:53:22.522Z,9.70
2023-04-09T01:55:52.910Z,12.60
2023-04-09T01:58:23.343Z,11.80
2023-04-09T02:00:58.282Z,12.00
2023-04-09T02:03:34.979Z,12.60
2023-04-09T02:06:11.314Z,11.80
2023-04-09T02:08:45.278Z,10.80
2023-04-09T02:11:17.438Z,10.40
2023-04-09T02:13:50.580Z,11.00
2023-04-09T02:16:21.863Z,12.70
2023-04-09T02:18:56.373Z,13.80
2023-04-09T02:21:27.057Z,14.50
2023-04-09T02:23:57.507Z,15.20
2023-04-09T02:26:28.309Z,19.60
2023-04-09T02:28:58.906Z,18.90
2023-04-09T02:31:29.382Z,15.70
2023-04-09T02:33:59.745Z,18.20
2023-04-09T02:36:31.109Z,17.30
2023-04-09T02:39:01.394Z,16.00
2023-04-09T02:41:32.348Z,18.90
2023-04-09T02:44:02.756Z,15.50
2023-04-09T02:46:33.524Z,20.50
2023-04-09T02:49:04.004Z,13.50
2023-04-09T02:51:35.238Z,11.10
2023-04-09T02:54:05.732Z,17.20
2023-04-09T02:56:36.087Z,16.50
2023-04-09T02:59:06.420Z,16.50
2023-04-09T03:01:36.853Z,13.80
2023-04-09T03:04:08.001Z,14.40
2023-04-09T03:06:39.288Z,20.20
2023-04-09T03:09:09.690Z,18.00
2023-04-09T03:11:40.192Z,15.90
2023-04-09T03:14:11.111Z,16.10
2023-04-09T03:16:42.169Z,20.80
2023-04-09T03:19:13.061Z,12.80
2023-04-09T03:21:44.047Z,20.10
2023-04-09T03:24:14.373Z,15.90
2023-04-09T03:26:44.687Z,18.60
2023-04-09T03:29:15.015Z,11.10
2023-04-09T03:31:46.050Z,17.50
2023-04-09T03:34:16.424Z,16.00
2023-04-09T03:36:47.855Z,16.70
2023-04-09T03:39:18.433Z,16.60
2023-04-09T03:41:48.911Z,13.40
2023-04-09T03:44:19.772Z,19.70
2023-04-09T03:46:50.394Z,15.50
2023-04-09T03:49:21.394Z,15.80
2023-04-09T03:51:52.440Z,12.70
2023-04-09T03:54:23.085Z,12.70
2023-04-09T03:56:53.661Z,15.80
2023-04-09T03:59:24.026Z,14.20
2023-04-09T04:01:55.111Z,14.20
2023-04-09T04:04:25.599Z,14.00
2023-04-09T04:06:56.476Z,14.20
2023-04-09T04:09:26.955Z,12.50
2023-04-09T04:11:58.926Z,15.20
2023-04-09T04:14:29.681Z,13.20
2023-04-09T04:17:00.027Z,13.60
2023-04-09T04:19:30.531Z,13.30
2023-04-09T04:22:00.978Z,15.50
2023-04-09T04:24:31.769Z,14.00
2023-04-09T04:27:02.447Z,12.90
2023-04-09T04:29:32.846Z,12.50
2023-04-09T04:32:03.310Z,14.80
2023-04-09T04:34:34.057Z,17.60
2023-04-09T04:37:05.212Z,18.90
2023-04-09T04:39:35.665Z,17.40
2023-04-09T04:42:06.288Z,15.60
2023-04-09T04:44:37.231Z,15.70
2023-04-09T04:47:07.860Z,15.10
2023-04-09T04:49:38.873Z,17.00
2023-04-09T04:52:09.680Z,15.60
2023-04-09T04:54:40.476Z,16.10
2023-04-09T04:57:10.907Z,16.90
2023-04-09T04:59:41.623Z,13.80
2023-04-09T05:02:12.067Z,18.80
2023-04-09T05:04:42.481Z,15.40
2023-04-09T05:07:12.876Z,12.90
2023-04-09T05:09:44.440Z,14.50
2023-04-09T05:12:15.125Z,13.50
2023-04-09T05:14:46.160Z,14.60
2023-04-09T05:17:16.615Z,14.90
2023-04-09T05:19:51.274Z,12.70
2023-04-09T05:22:21.980Z,13.50
2023-04-09T05:24:52.480Z,14.70
2023-04-09T05:27:25.745Z,12.80
2023-04-09T05:29:57.684Z,11.20
2023-04-09T05:32:29.802Z,15.60
2023-04-09T05:35:00.344Z,13.90
2023-04-09T05:37:30.676Z,13.40
2023-04-09T05:40:01.093Z,13.70
2023-04-09T05:42:31.771Z,16.40
2023-04-09T05:45:02.497Z,14.10
2023-04-09T05:47:33.208Z,16.50
2023-04-09T05:50:04.359Z,15.10
2023-04-09T05:52:35.269Z,13.40
2023-04-09T05:55:06.557Z,13.60
2023-04-09T05:57:37.204Z,13.60
2023-04-09T06:00:09.887Z,17.60
2023-04-09T06:02:40.959Z,14.90
2023-04-09T06:05:12.067Z,16.70
2023-04-09T06:07:43.095Z,16.40
2023-04-09T06:10:13.650Z,13.90
2023-04-09T06:12:44.402Z,13.40
2023-04-09T06:15:15.678Z,14.80
2023-04-09T06:17:46.431Z,12.80
2023-04-09T06:20:17.314Z,13.30
2023-04-09T06:22:47.925Z,15.00
2023-04-09T06:25:18.977Z,13.00
2023-04-09T06:27:49.344Z,16.90
2023-04-09T06:30:20.237Z,13.80
2023-04-09T06:32:55.110Z,18.00
2023-04-09T06:35:26.725Z,17.70
2023-04-09T06:37:57.312Z,16.60
2023-04-09T06:40:28.287Z,17.50
2023-04-09T06:42:58.638Z,18.70
2023-04-09T06:45:29.456Z,15.30
2023-04-09T06:48:00.046Z,18.70
2023-04-09T06:50:31.033Z,15.60
2023-04-09T06:53:01.409Z,16.90
2023-04-09T06:55:32.168Z,17.00
2023-04-09T06:58:03.330Z,19.60
2023-04-09T07:00:34.036Z,14.60
2023-04-09T07:03:05.653Z,19.60
2023-04-09T07:05:37.179Z,22.60
2023-04-09T07:08:08.306Z,19.50
2023-04-09T07:10:39.233Z,16.70
2023-04-09T07:13:09.853Z,16.70
2023-04-09T07:15:42.448Z,26.40
2023-04-09T07:18:13.153Z,24.40
2023-04-09T07:20:43.852Z,22.60
2023-04-09T07:23:14.459Z,21.40
2023-04-09T07:25:44.809Z,21.10
2023-04-09T07:28:15.335Z,23.70
2023-04-09T07:30:46.260Z,23.20
2023-04-09T07:33:16.883Z,16.20
2023-04-09T07:35:47.597Z,19.80
2023-04-09T07:38:17.961Z,27.40
2023-04-09T07:40:48.826Z,20.80
2023-04-09T07:43:20.779Z,18.20
2023-04-09T07:45:52.982Z,22.20
2023-04-09T07:48:23.760Z,26.50
2023-04-09T07:50:54.359Z,26.10
2023-04-09T07:53:24.978Z,31.90
2023-04-09T07:55:55.545Z,23.80
2023-04-09T07:58:26.269Z,25.70
2023-04-09T08:00:57.011Z,22.70
2023-04-09T08:03:27.994Z,21.50
2023-04-09T08:05:58.865Z,25.50
2023-04-09T08:08:29.303Z,20.90
2023-04-09T08:11:00.362Z,19.50
2023-04-09T08:13:30.720Z,22.60
2023-04-09T08:16:03.730Z,23.30
2023-04-09T08:18:34.459Z,19.90
2023-04-09T08:21:08.572Z,24.70
2023-04-09T08:23:39.445Z,25.00
2023-04-09T08:26:09.796Z,24.70
2023-04-09T08:28:40.406Z,23.10
2023-04-09T08:31:11.487Z,21.00
2023-04-09T08:33:42.883Z,17.10
2023-04-09T08:36:13.263Z,22.10
2023-04-09T08:38:45.067Z,26.50
2023-04-09T08:41:23.030Z,31.20
2023-04-09T08:46:29.922Z,15.70
2023-04-09T08:49:00.393Z,18.40
2023-04-09T08:51:31.449Z,23.70
2023-04-09T08:54:05.014Z,20.10
2023-04-09T08:56:35.816Z,21.20
2023-04-09T08:59:06.535Z,21.20
2023-04-09T09:01:37.403Z,24.70
2023-04-09T09:04:09.508Z,27.90
2023-04-09T09:06:41.678Z,20.20
2023-04-09T09:09:14.165Z,21.30
2023-04-09T09:11:46.861Z,21.70
2023-04-09T09:14:19.555Z,22.50
2023-04-09T09:17:08.343Z,24.20
2023-04-09T09:19:39.233Z,24.20
2023-04-09T09:22:12.542Z,25.20
2023-04-09T09:24:51.482Z,25.70
2023-04-09T09:27:40.546Z,22.90
2023-04-09T09:30:21.714Z,27.40
2023-04-09T09:32:55.249Z,26.30
2023-04-09T09:35:26.095Z,26.90
2023-04-09T09:38:06.354Z,25.60
2023-04-09T09:40:36.716Z,28.10
2023-04-09T09:43:07.081Z,26.30
2023-04-09T09:45:39.888Z,24.50
2023-04-09T09:48:11.517Z,24.20
2023-04-09T09:50:43.723Z,27.60
2023-04-09T09:53:15.528Z,24.30
2023-04-09T09:55:50.485Z,27.20
2023-04-09T09:58:27.908Z,20.10
2023-04-09T10:00:58.905Z,24.30
2023-04-09T10:03:32.137Z,23.80
2023-04-09T10:06:04.378Z,20.30
2023-04-09T10:08:37.910Z,20.10
2023-04-09T10:11:08.980Z,21.80
2023-04-09T10:13:42.706Z,26.40
2023-04-09T10:16:14.261Z,20.40
2023-04-09T10:18:45.474Z,23.90
2023-04-09T10:21:25.378Z,23.20
2023-04-09T10:23:56.685Z,28.80
2023-04-09T10:26:30.863Z,23.60
2023-04-09T10:29:14.433Z,26.00
2023-04-09T10:32:07.787Z,17.70
2023-04-09T10:34:41.700Z,22.10
2023-04-09T10:37:15.501Z,22.10
2023-04-09T10:39:48.566Z,21.00
2023-04-09T10:42:24.828Z,23.30
2023-04-09T10:45:10.173Z,22.00
2023-04-09T10:47:43.007Z,21.90
2023-04-09T10:50:26.744Z,20.60
2023-04-09T10:53:00.261Z,21.90
2023-04-09T10:55:38.409Z,21.30
2023-04-09T10:58:12.793Z,21.50
2023-04-09T11:00:45.466Z,18.50
2023-04-09T11:03:30.618Z,22.40
2023-04-09T11:06:05.979Z,20.60
2023-04-09T11:08:38.016Z,19.40
2023-04-09T11:11:08.736Z,21.80
2023-04-09T11:13:39.030Z,28.00
2023-04-09T11:16:09.662Z,22.50
2023-04-09T11:18:40.950Z,23.00
2023-04-09T11:21:13.441Z,26.10
2023-04-09T11:23:52.347Z,21.20
2023-04-09T11:26:29.365Z,24.00
2023-04-09T11:29:05.508Z,22.20
2023-04-09T11:31:36.498Z,19.80
2023-04-09T11:34:06.888Z,19.30
2023-04-09T11:36:38.316Z,21.30
2023-04-09T11:39:09.019Z,21.10
2023-04-09T11:41:40.031Z,21.80
2023-04-09T11:44:11.038Z,23.60
2023-04-09T11:46:42.021Z,19.20
2023-04-09T11:49:13.813Z,18.40
2023-04-09T11:51:44.244Z,20.60
2023-04-09T11:54:14.881Z,24.30
2023-04-09T11:56:45.941Z,23.40
2023-04-09T11:59:18.752Z,21.00
2023-04-09T12:01:52.663Z,20.30
2023-04-09T12:04:24.177Z,17.50
2023-04-09T12:06:59.608Z,21.00
2023-04-09T12:09:30.564Z,18.50
2023-04-09T12:12:02.349Z,20.60
2023-04-09T12:14:32.955Z,19.90
2023-04-09T12:17:03.478Z,15.90
2023-04-09T12:19:37.427Z,18.00
2023-04-09T12:22:07.800Z,18.50
2023-04-09T12:24:38.096Z,17.50
2023-04-09T12:27:08.386Z,19.30
2023-04-09T12:29:38.745Z,18.70
2023-04-09T12:32:09.234Z,16.40
2023-04-09T12:34:39.697Z,18.50
2023-04-09T12:37:10.626Z,20.90
2023-04-09T12:39:41.722Z,19.40
2023-04-09T12:42:12.098Z,19.40
2023-04-09T12:44:42.941Z,17.70
2023-04-09T12:47:13.445Z,17.50
2023-04-09T12:49:46.741Z,17.60
2023-04-09T12:52:18.745Z,18.10
2023-04-09T12:54:49.576Z,18.10
2023-04-09T12:57:20.314Z,20.30
2023-04-09T12:59:51.010Z,18.10
2023-04-09T13:02:22.567Z,16.80
2023-04-09T13:04:53.826Z,20.70
2023-04-09T13:07:25.729Z,20.00
2023-04-09T13:09:56.583Z,17.40
2023-04-09T13:12:27.090Z,17.10
2023-04-09T13:14:59.134Z,15.20
2023-04-09T13:17:30.012Z,19.80
2023-04-09T13:20:01.275Z,19.10
2023-04-09T13:22:31.677Z,17.40
2023-04-09T13:25:02.325Z,15.40
2023-04-09T13:27:33.047Z,22.50
2023-04-09T13:30:03.877Z,34.30
2023-04-09T13:32:34.349Z,21.50
2023-04-09T13:35:06.173Z,17.20
2023-04-09T13:37:36.912Z,18.40
2023-04-09T13:40:09.933Z,20.60
2023-04-09T13:42:40.813Z,17.00
2023-04-09T13:45:12.304Z,16.90
2023-04-09T13:47:43.053Z,20.20
2023-04-09T13:50:14.338Z,14.20
2023-04-09T13:52:44.700Z,16.60
2023-04-09T13:55:15.477Z,18.90
2023-04-09T13:57:46.281Z,14.10
2023-04-09T14:00:17.574Z,16.80
2023-04-09T14:02:48.875Z,17.90
2023-04-09T14:05:19.562Z,17.60
2023-04-09T14:07:49.943Z,18.20
2023-04-09T14:10:20.578Z,17.10
2023-04-09T14:12:51.538Z,16.00
2023-04-09T14:15:22.237Z,16.40
2023-04-09T14:17:52.984Z,15.00
2023-04-09T14:20:24.570Z,17.70
2023-04-09T14:22:55.847Z,16.40
2023-04-09T14:25:26.232Z,16.80
2023-04-09T14:27:57.037Z,16.30
2023-04-09T14:30:27.490Z,15.20
2023-04-09T14:32:58.241Z,16.20
2023-04-09T14:35:28.723Z,16.90
2023-04-09T14:37:59.508Z,17.40
2023-04-09T14:40:29.948Z,16.60
2023-04-09T14:43:01.124Z,15.90
2023-04-09T14:45:31.470Z,17.10
2023-04-09T14:48:03.070Z,18.60
2023-04-09T14:50:34.774Z,17.70
2023-04-09T14:53:05.776Z,14.80
2023-04-09T14:55:36.210Z,13.40
2023-04-09T14:58:08.241Z,13.60
2023-04-09T15:00:39.463Z,13.40
2023-04-09T15:03:10.140Z,14.70
2023-04-09T15:05:41.366Z,14.40
2023-04-09T15:08:12.037Z,16.30
2023-04-09T15:10:42.389Z,14.10
2023-04-09T15:13:13.092Z,16.40
2023-04-09T15:15:45.022Z,12.70
2023-04-09T15:18:16.012Z,15.40
2023-04-09T15:20:46.757Z,14.20
2023-04-09T15:23:17.382Z,15.90
2023-04-09T15:25:47.978Z,15.80
2023-04-09T15:28:18.339Z,16.00
2023-04-09T15:30:48.964Z,19.90
2023-04-09T15:33:19.977Z,17.40
2023-04-09T15:35:50.805Z,17.20
2023-04-09T15:38:25.030Z,14.70
2023-04-09T15:40:59.134Z,15.20
2023-04-09T15:43:29.856Z,14.30
2023-04-09T15:46:00.940Z,15.20
2023-04-09T15:48:31.471Z,15.50
2023-04-09T15:51:01.827Z,16.40
2023-04-09T15:53:32.371Z,17.20
2023-04-09T15:56:03.196Z,17.90
2023-04-09T15:58:33.598Z,16.90
2023-04-09T16:01:09.045Z,16.40
2023-04-09T16:03:41.347Z,16.10
2023-04-09T16:06:14.439Z,14.60
2023-04-09T16:08:44.883Z,15.70
2023-04-09T16:11:15.957Z,14.80
2023-04-09T16:13:46.290Z,15.30
2023-04-09T16:16:16.630Z,16.70
2023-04-09T16:18:47.659Z,14.60
2023-04-09T16:21:18.055Z,21.50
2023-04-09T16:23:48.797Z,17.00
2023-04-09T16:26:19.436Z,18.20
2023-04-09T16:28:51.281Z,19.60
2023-04-09T16:31:22.078Z,14.40
2023-04-09T16:33:52.757Z,14.90
2023-04-09T16:36:23.195Z,18.30
2023-04-09T16:38:54.119Z,16.10
2023-04-09T16:41:25.343Z,16.00
2023-04-09T16:43:56.141Z,15.20
2023-04-09T16:46:26.524Z,13.90
2023-04-09T16:48:57.015Z,19.70
2023-04-09T16:51:27.549Z,19.10
2023-04-09T16:53:58.203Z,14.90
2023-04-09T16:56:28.632Z,14.80
2023-04-09T16:58:59.660Z,15.70
2023-04-09T17:01:30.255Z,12.80
2023-04-09T17:04:03.113Z,14.00
2023-04-09T17:06:33.556Z,14.60
2023-04-09T17:09:05.314Z,15.50
2023-04-09T17:11:38.033Z,16.00
2023-04-09T17:14:08.661Z,16.00
2023-04-09T17:16:39.105Z,17.70
2023-04-09T17:19:09.940Z,16.60
2023-04-09T17:21:41.134Z,16.10
2023-04-09T17:24:11.766Z,15.70
2023-04-09T17:26:42.721Z,14.20
2023-04-09T17:29:13.712Z,17.90
2023-04-09T17:31:44.874Z,16.70
2023-04-09T17:34:16.326Z,20.10
2023-04-09T17:36:49.738Z,17.30
2023-04-09T17:39:20.345Z,15.70
2023-04-09T17:41:51.475Z,18.10
2023-04-09T17:44:22.841Z,17.70
2023-04-09T17:46:53.886Z,13.90
2023-04-09T17:49:24.720Z,13.30
2023-04-09T17:51:55.082Z,15.00
2023-04-09T17:54:25.781Z,12.50
2023-04-09T17:56:56.940Z,14.20
2023-04-09T17:59:27.321Z,16.90
2023-04-09T18:01:57.917Z,14.50
2023-04-09T18:04:29.306Z,13.80
2023-04-09T18:06:59.774Z,19.10
2023-04-09T18:09:30.644Z,16.80
2023-04-09T18:12:02.772Z,16.60
2023-04-09T18:14:33.220Z,14.30
2023-04-09T18:17:03.561Z,16.90
2023-04-09T18:19:34.471Z,16.30
2023-04-09T18:22:05.124Z,13.10
2023-04-09T18:24:35.580Z,14.20
2023-04-09T18:27:06.104Z,16.80
2023-04-09T18:29:36.471Z,12.40
2023-04-09T18:32:07.078Z,15.70
2023-04-09T18:34:38.217Z,14.90
2023-04-09T18:37:08.888Z,18.70
2023-04-09T18:39:39.554Z,18.70
2023-04-09T18:42:10.470Z,16.80
2023-04-09T18:44:41.406Z,20.30
2023-04-09T18:47:14.170Z,18.60
2023-04-09T18:49:44.884Z,18.30
2023-04-09T18:52:15.664Z,17.30
2023-04-09T18:54:48.154Z,18.00
2023-04-09T18:57:19.287Z,19.10
2023-04-09T18:59:50.149Z,18.80
2023-04-09T19:02:20.743Z,20.90
2023-04-09T19:04:51.350Z,23.40
2023-04-09T19:07:23.019Z,19.90
2023-04-09T19:09:53.394Z,21.30
2023-04-09T19:12:24.989Z,20.60
2023-04-09T19:14:55.828Z,20.70
2023-04-09T19:17:27.236Z,19.00
2023-04-09T19:19:57.758Z,18.90
2023-04-09T19:22:28.386Z,22.90
2023-04-09T19:24:59.386Z,18.90
2023-04-09T19:27:29.774Z,19.00
2023-04-09T19:30:01.141Z,19.50
2023-04-09T19:32:31.846Z,19.90
2023-04-09T19:35:03.045Z,21.10
2023-04-09T19:37:34.672Z,24.40
2023-04-09T19:40:05.464Z,19.60
2023-04-09T19:42:36.131Z,21.60
2023-04-09T19:45:07.915Z,22.00
2023-04-09T19:47:38.546Z,19.90
2023-04-09T19:50:10.222Z,21.20
2023-04-09T19:52:42.869Z,23.00
2023-04-09T19:55:13.797Z,24.20
2023-04-09T19:57:46.104Z,25.20
2023-04-09T20:00:17.336Z,22.60
2023-04-09T20:02:47.902Z,47.30
2023-04-09T20:05:20.924Z,39.20
2023-04-09T20:07:52.666Z,32.40
2023-04-09T20:10:23.240Z,25.30
2023-04-09T20:12:53.873Z,30.20
2023-04-09T20:15:24.460Z,35.40
2023-04-09T20:17:55.547Z,24.60
2023-04-09T20:20:26.156Z,26.00
2023-04-09T20:22:56.913Z,21.90
2023-04-09T20:25:33.869Z,25.30
2023-04-09T20:28:05.083Z,23.90
2023-04-09T20:30:35.492Z,26.00
2023-04-09T20:33:05.858Z,23.20
2023-04-09T20:35:37.818Z,22.10
2023-04-09T20:38:08.254Z,21.00
2023-04-09T20:40:39.337Z,26.70
2023-04-09T20:43:10.384Z,24.10
2023-04-09T20:45:41.196Z,25.60
2023-04-09T20:48:11.841Z,24.70
2023-04-09T20:50:42.838Z,23.70
2023-04-09T20:53:13.405Z,25.50
2023-04-09T20:55:43.760Z,28.50
2023-04-09T20:58:14.632Z,21.20
2023-04-09T21:00:45.718Z,26.00
2023-04-09T21:03:17.154Z,23.10
2023-04-09T21:05:47.774Z,22.90
2023-04-09T21:08:18.149Z,26.60
2023-04-09T21:10:48.967Z,24.40
2023-04-09T21:13:19.500Z,25.00
2023-04-09T21:15:51.249Z,25.70
2023-04-09T21:18:21.761Z,21.60
2023-04-09T21:20:52.473Z,27.80
2023-04-09T21:23:22.858Z,20.90
2023-04-09T21:25:53.166Z,22.80
2023-04-09T21:28:23.525Z,22.20
2023-04-09T21:30:54.837Z,25.50
2023-04-09T21:33:27.507Z,29.70
2023-04-09T21:35:58.922Z,32.60
2023-04-09T21:38:29.351Z,29.60
2023-04-09T21:41:00.393Z,39.60
2023-04-09T21:43:30.956Z,28.10
2023-04-09T21:46:01.596Z,31.10
2023-04-09T21:48:32.620Z,34.60
2023-04-09T21:51:03.677Z,28.50
2023-04-09T21:53:34.482Z,26.80
2023-04-09T21:56:05.487Z,26.80
2023-04-09T21:58:36.334Z,30.40
2023-04-09T22:01:15.854Z,31.10
2023-04-09T22:03:53.642Z,33.70
2023-04-09T22:06:24.396Z,30.70
2023-04-09T22:08:56.650Z,32.00
2023-04-09T22:11:28.948Z,32.70
2023-04-09T22:13:59.739Z,30.10
2023-04-09T22:16:30.218Z,29.20
2023-04-09T22:19:02.221Z,24.70
2023-04-09T22:21:32.875Z,29.20
2023-04-09T22:24:03.591Z,25.00
2023-04-09T22:26:34.417Z,24.00
2023-04-09T22:29:06.824Z,31.10
2023-04-09T22:31:38.449Z,24.70
2023-04-09T22:34:20.184Z,27.70
2023-04-09T22:36:52.087Z,23.80
2023-04-09T22:39:22.912Z,28.50
2023-04-09T22:41:53.935Z,28.50
2023-04-09T22:44:24.784Z,22.10
2023-04-09T22:46:55.364Z,24.00
2023-04-09T22:49:26.562Z,22.80
2023-04-09T22:51:57.434Z,22.70
2023-04-09T22:54:29.989Z,25.80
2023-04-09T22:57:01.251Z,22.80
2023-04-09T22:59:40.401Z,21.00
2023-04-09T23:02:11.779Z,20.90
2023-04-09T23:04:42.688Z,23.20
2023-04-09T23:07:13.145Z,20.30
2023-04-09T23:09:43.842Z,20.90
2023-04-09T23:12:14.213Z,22.50
2023-04-09T23:14:45.298Z,22.10
2023-04-09T23:17:17.148Z,23.80
2023-04-09T23:19:47.568Z,22.70
2023-04-09T23:22:17.911Z,23.90
2023-04-09T23:24:48.660Z,23.90
2023-04-09T23:27:19.077Z,21.60
2023-04-09T23:29:49.420Z,26.60
2023-04-09T23:32:19.792Z,24.50
2023-04-09T23:34:50.328Z,25.10
2023-04-09T23:37:21.403Z,20.10
2023-04-09T23:39:51.833Z,22.50
2023-04-09T23:42:22.216Z,21.80
2023-04-09T23:44:53.269Z,28.30
2023-04-09T23:47:23.663Z,26.20
2023-04-09T23:49:54.065Z,25.20
2023-04-09T23:52:24.648Z,21.20
2023-04-09T23:54:55.812Z,24.50
2023-04-09T23:57:26.265Z,27.00
2023-04-09T23:59:57.084Z,23.50
